Record high temperature 34.4°C Record low temperature -24.9°C Record high gust 32.4 kts Record high average 15.7 kts Record daily rain 0.0 mm Record low windchill -28.7°C Record high barometer 1042.1 hPa Record low barometer 947.2 hPa
Daily high pressure 985.4 hPa Daily low pressure 985.3 hPa Daily low windchill 9.7°C Daily high heat index 10.3°C Daily high gust speed 2.0 kts WSW Daily high average speed 0.5 kts W
ESUI Väder
LAST READING AT TIME: 12:40 AM DATE: August 01 2021, time of next update: 12:45 am
Current WeatherNight time/Dry Current Temperature 9.8°C (49.6°F), Apparent temp 9.5°C
Maximum Temperature (since midnight)10.3°C at: 12:00 AM Minimum Temperature (since midnight)9.7°C at: 12:30 AM
Average windspeed (ten minute)1.0 kts (1.9 kmh) Wind Direction (ten minute)NW (315°)
Windchill Temperature 9.8°C Maximum Gust (last hour)3.0 kts (5.6 kmh) at: 11:37 PM
Maximum Gust (since midnight)2.0 kts (3.7 kmh) at: 3:57 PM Maximum 1 minute average (since midnight)0.5 kts (1.0 kmh) at: 12:00 AM
Rainfall (last hour)0.0 mm Rainfall (since midnight)0.0 mm (0.00 in.)---
Rainfall This month 0.0 mm (0.00 in.) Rainfall To date this year 0.0 mm (0.00 in.)
Maximum rain per minute (last hour)0.0 mm/min Maximum rain per hour (last 6 hours)0.0 mm/hour
Yesterdays rainfall 0.0 mm DewPoint 8.2°C (Wet Bulb :9.0°C )
Humidity 90 %, Humidex 10.3°C Barometer corrected to msl985.4 hPa
Pressure change +0.2 hPa (last hour) Trend (last hour)STEADY
Pressure change (last 12 hours)+0.2 hPa Pressure change (last 6 hours)+0.3 hPa
Current Indoor Temp. 19.1°C
Current Indoor Hum. 55%



Weather report/warning/Metars

Ornskoldsvik Airport, Sweden (ESNO) 63-24N 018-58E
Jul 31, 2021 - 06:20 PM EDT / 2021.07.31 2220 UTC
Wind: from the WNW (300 degrees) at 1 MPH (1 KT):0
Visibility: 3 mile(s):0
Sky conditions: partly cloudy
Temperature: 53 F (12 C)
Dew Point: 53 F (12 C)
Relative Humidity: 100%
Pressure (altimeter): 29.44 in. Hg (0997 hPa)
ob: ESNO 312220Z AUTO 30001KT 5000 SCT084/// 12/12 Q0997
cycle: 22
Kramfors Flygplats, Sweden (ESNK) 63-03N 017-46E 19M
Jul 31, 2021 - 06:20 PM EDT / 2021.07.31 2220 UTC
Wind: Calm:0
Visibility: greater than 7 mile(s):0
Sky conditions: overcast
Temperature: 57 F (14 C)
Dew Point: 55 F (13 C)
Relative Humidity: 93%
Pressure (altimeter): 29.44 in. Hg (0997 hPa)
ob: ESNK 312220Z AUTO 00000KT 9999 // OVC053/// 14/13 Q0997
cycle: 22
Umea Flygplats, Sweden (ESNU) 63-48N 020-17E 14M
Jul 31, 2021 - 06:20 PM EDT / 2021.07.31 2220 UTC
Wind: from the SSE (160 degrees) at 5 MPH (4 KT):0
Visibility: less than 1 mile:0
Weather: patches of fog
Temperature: 55 F (13 C)
Dew Point: 55 F (13 C)
Relative Humidity: 100%
Pressure (altimeter): 29.44 in. Hg (0997 hPa)
ob: ESNU 312220Z AUTO 16004KT 0100 R14/0750U R32/P1500N BCFG NCD 13/13 Q0997
cycle: 22
Skelleftea Airport, Sweden (ESNS) 64-38N 021-05E
Jul 31, 2021 - 06:20 PM EDT / 2021.07.31 2220 UTC
Wind: from the SW (220 degrees) at 5 MPH (4 KT) (direction variable):0
Visibility: greater than 7 mile(s):0
Temperature: 57 F (14 C)
Dew Point: 55 F (13 C)
Relative Humidity: 93%
Pressure (altimeter): 29.41 in. Hg (0996 hPa)
ob: ESNS 312220Z AUTO 22004KT 190V260 9999 NCD 14/13 Q0996
cycle: 22



The data is logged at two minute intervals, but there is data recorded every minute.

Use the RELOAD facility on your browser to retrieve the latest data.

Click here for a daily update of the averages/extremes to date for the month
Created by "Weather Display" software version 10.37S at this start time/date 23:48:34 2021-07-31